Time;durP1;ratioP1;P1;durP2;ratioP2;P2;SDS_P1;SDS_P2;PMS_P1;PMS_P2;Temp;Humidity;BMP_temperature;BMP_pressure;BME280_temperature;BME280_humidity;BME280_pressure;Samples;Min_cycle;Max_cycle;Signal;HPM_P1;HPM_P2
2023/11/27 00:01:47;;;;;;;3.10;1.30;;;10.30;99.90;;;;;;6218920;28;20046;-82
2023/11/27 00:04:49;;;;;;;3.60;1.30;;;10.30;99.90;;;;;;6255328;28;20049;-83
2023/11/27 00:07:50;;;;;;;4.78;1.60;;;10.30;99.90;;;;;;6231452;28;20411;-83
2023/11/27 00:10:52;;;;;;;4.60;2.00;;;10.30;99.90;;;;;;6230744;28;20188;-82
2023/11/27 00:13:54;;;;;;;5.65;2.03;;;10.30;99.90;;;;;;6255652;28;20054;-83
2023/11/27 00:16:55;;;;;;;5.88;2.40;;;10.40;99.90;;;;;;6272354;28;20057;-81
2023/11/27 00:19:57;;;;;;;6.78;2.35;;;10.30;99.90;;;;;;6230966;28;20259;-82
2023/11/27 00:22:58;;;;;;;6.90;2.67;;;10.40;99.90;;;;;;6247909;28;20157;-82
2023/11/27 00:26:00;;;;;;;5.53;2.60;;;10.40;99.90;;;;;;6271128;28;20423;-82
2023/11/27 00:29:02;;;;;;;6.32;2.67;;;10.40;99.90;;;;;;6253090;28;20046;-82
2023/11/27 00:32:03;;;;;;;4.95;2.72;;;10.40;99.90;;;;;;6253854;28;20049;-83
2023/11/27 00:35:06;;;;;;;6.55;2.78;;;10.40;99.90;;;;;;6230940;28;20061;-83
2023/11/27 00:38:08;;;;;;;5.47;2.80;;;10.30;99.90;;;;;;6254977;28;20064;-83
2023/11/27 00:41:14;;;;;;;7.20;2.70;;;10.30;99.90;;;;;;6231412;28;20053;-83
2023/11/27 00:44:16;;;;;;;8.07;2.90;;;10.30;99.90;;;;;;6204899;28;20101;-83
2023/11/27 00:47:18;;;;;;;7.93;2.88;;;10.30;99.90;;;;;;6256354;28;20665;-83
2023/11/27 00:50:19;;;;;;;6.97;2.42;;;10.30;99.90;;;;;;6270681;28;20496;-82
2023/11/27 00:53:21;;;;;;;8.60;2.80;;;10.30;99.90;;;;;;6229777;28;20053;-85
2023/11/27 00:56:23;;;;;;;7.03;2.80;;;10.30;99.90;;;;;;6251337;28;20068;-82
2023/11/27 00:59:24;;;;;;;9.15;2.70;;;10.30;99.90;;;;;;6268236;28;20060;-82
2023/11/27 01:02:26;;;;;;;7.03;2.85;;;10.20;99.90;;;;;;6247768;28;20063;-83
2023/11/27 01:05:28;;;;;;;7.90;2.90;;;10.20;99.90;;;;;;6229377;28;20045;-83
2023/11/27 01:08:29;;;;;;;6.68;2.70;;;10.10;99.90;;;;;;6268853;28;20420;-84
2023/11/27 01:11:31;;;;;;;6.75;2.50;;;10.20;99.90;;;;;;6247043;28;20501;-82
2023/11/27 01:14:33;;;;;;;9.20;2.55;;;10.20;99.90;;;;;;6261561;28;20064;-82
2023/11/27 01:17:34;;;;;;;8.43;2.55;;;10.20;99.90;;;;;;6252820;28;20049;-81
2023/11/27 01:20:36;;;;;;;7.35;2.33;;;10.20;99.90;;;;;;6247157;28;20155;-82
2023/11/27 01:23:37;;;;;;;7.68;2.30;;;10.20;99.90;;;;;;6246476;28;20528;-83
2023/11/27 01:26:39;;;;;;;7.05;2.28;;;10.20;99.90;;;;;;6213369;28;20061;-82
2023/11/27 01:29:41;;;;;;;10.23;2.65;;;10.10;99.90;;;;;;6267576;28;20063;-83
2023/11/27 01:32:43;;;;;;;9.18;2.45;;;10.10;99.90;;;;;;6246148;28;20686;-82
2023/11/27 01:35:44;;;;;;;7.35;2.58;;;10.10;99.90;;;;;;6270591;28;20419;-83
2023/11/27 01:38:46;;;;;;;7.32;2.20;;;10.20;99.90;;;;;;6229388;28;20155;-83
2023/11/27 01:41:48;;;;;;;7.28;1.85;;;10.10;99.90;;;;;;6230992;28;20053;-82
2023/11/27 01:44:49;;;;;;;6.85;2.00;;;10.10;99.90;;;;;;6238993;28;20060;-82
2023/11/27 01:47:51;;;;;;;8.70;1.98;;;10.10;99.90;;;;;;6270272;28;20076;-82
2023/11/27 01:50:53;;;;;;;8.70;1.77;;;10.10;99.90;;;;;;6246476;28;20045;-82
2023/11/27 01:53:54;;;;;;;7.28;1.75;;;10.10;99.90;;;;;;6245735;28;20139;-83
2023/11/27 01:56:56;;;;;;;5.68;1.80;;;10.10;99.90;;;;;;6218458;28;20641;-82
2023/11/27 01:59:58;;;;;;;7.25;1.60;;;10.10;99.90;;;;;;6249003;28;20072;-83
2023/11/27 02:03:00;;;;;;;11.15;1.80;;;10.10;99.90;;;;;;6246140;28;20056;-82
2023/11/27 02:06:01;;;;;;;7.18;1.58;;;10.00;99.90;;;;;;6245385;28;20053;-85
2023/11/27 02:09:03;;;;;;;7.95;1.42;;;10.00;99.90;;;;;;6268679;28;20053;-84
2023/11/27 02:12:04;;;;;;;8.43;1.55;;;10.00;99.90;;;;;;6245893;28;20060;-82
2023/11/27 02:15:06;;;;;;;9.65;1.60;;;10.00;99.90;;;;;;6267348;28;20072;-83
2023/11/27 02:18:08;;;;;;;6.50;1.75;;;10.00;99.90;;;;;;6241642;28;20142;-83
2023/11/27 02:21:09;;;;;;;10.13;1.50;;;10.00;99.90;;;;;;6268328;28;20423;-82
2023/11/27 02:24:11;;;;;;;6.20;1.30;;;9.90;99.90;;;;;;6228072;28;20056;-83
2023/11/27 02:27:13;;;;;;;7.20;1.45;;;9.90;99.90;;;;;;6268793;28;20053;-83
2023/11/27 02:30:14;;;;;;;5.65;1.40;;;9.90;99.90;;;;;;6213172;28;20505;-83
2023/11/27 02:33:16;;;;;;;5.75;1.50;;;9.90;99.90;;;;;;6220695;28;20663;-83
2023/11/27 02:36:18;;;;;;;9.27;1.50;;;9.90;99.90;;;;;;6237305;28;20049;-84
2023/11/27 02:39:20;;;;;;;4.95;1.40;;;9.90;99.90;;;;;;6256571;28;20050;-83
2023/11/27 02:42:22;;;;;;;9.45;1.65;;;9.90;99.90;;;;;;6249025;28;20453;-83
2023/11/27 02:45:24;;;;;;;12.52;1.70;;;9.90;99.90;;;;;;6242942;28;20057;-83
2023/11/27 02:48:25;;;;;;;6.63;1.13;;;9.90;99.90;;;;;;6221016;28;20053;-83
2023/11/27 02:51:27;;;;;;;6.07;1.50;;;9.90;99.90;;;;;;6205004;28;20085;-83
2023/11/27 02:54:28;;;;;;;7.85;1.70;;;9.90;99.90;;;;;;6245087;28;20053;-83
2023/11/27 02:57:30;;;;;;;6.45;1.38;;;9.90;99.90;;;;;;6266203;28;20057;-83
2023/11/27 03:00:32;;;;;;;11.48;1.52;;;9.90;99.90;;;;;;6208262;28;20136;-83
2023/11/27 03:03:33;;;;;;;7.97;1.52;;;9.90;99.90;;;;;;6250112;28;20404;-82
2023/11/27 03:06:35;;;;;;;6.78;1.38;;;9.90;99.90;;;;;;6242519;28;20051;-83
2023/11/27 03:09:37;;;;;;;6.03;1.40;;;9.80;99.90;;;;;;6253100;28;20127;-82
2023/11/27 03:12:38;;;;;;;5.32;1.65;;;9.90;99.90;;;;;;6243740;28;20053;-82
2023/11/27 03:15:40;;;;;;;6.80;1.17;;;9.80;99.90;;;;;;6226751;28;20060;-82
2023/11/27 03:18:42;;;;;;;7.57;1.30;;;9.80;99.90;;;;;;6250657;28;20099;-82
2023/11/27 03:21:43;;;;;;;7.75;1.35;;;9.80;99.90;;;;;;6249995;28;20061;-82
2023/11/27 03:24:45;;;;;;;8.88;1.40;;;9.80;99.90;;;;;;6227782;28;20049;-83
2023/11/27 03:27:46;;;;;;;9.15;1.30;;;9.80;99.90;;;;;;6241116;28;20049;-83
2023/11/27 03:30:48;;;;;;;6.32;1.30;;;9.80;99.90;;;;;;6242695;28;20058;-83
2023/11/27 03:33:51;;;;;;;4.88;1.23;;;9.80;99.90;;;;;;6268017;28;20106;-82
2023/11/27 03:36:52;;;;;;;5.75;1.40;;;9.80;99.90;;;;;;6244353;28;20075;-82
2023/11/27 03:39:54;;;;;;;8.20;1.63;;;9.80;99.90;;;;;;6225028;28;20160;-82
2023/11/27 03:42:56;;;;;;;5.40;1.27;;;9.80;99.90;;;;;;6261256;28;20038;-83
2023/11/27 03:45:57;;;;;;;5.18;1.15;;;9.80;99.90;;;;;;6223203;28;20056;-84
2023/11/27 03:48:59;;;;;;;5.65;1.20;;;9.80;99.90;;;;;;6243746;28;20694;-83
2023/11/27 03:52:01;;;;;;;4.72;1.25;;;9.70;99.90;;;;;;6267818;28;20529;-83
2023/11/27 03:55:03;;;;;;;6.50;1.60;;;9.70;99.90;;;;;;6226502;28;20059;-82
2023/11/27 03:58:04;;;;;;;4.75;1.20;;;9.70;99.90;;;;;;6223527;28;20049;-84
2023/11/27 04:01:06;;;;;;;4.43;1.35;;;9.70;99.90;;;;;;6250404;28;20504;-83
2023/11/27 04:04:08;;;;;;;4.20;1.20;;;9.70;99.90;;;;;;6243925;28;20065;-84
2023/11/27 04:07:11;;;;;;;7.32;1.70;;;9.70;99.90;;;;;;6224427;28;20057;-83
2023/11/27 04:10:16;;;;;;;6.90;1.42;;;9.70;99.90;;;;;;6266295;28;20059;-84
2023/11/27 04:13:18;;;;;;;4.78;1.60;;;9.70;99.90;;;;;;6223343;28;20061;-83
2023/11/27 04:16:19;;;;;;;6.18;1.65;;;9.70;99.90;;;;;;6267534;28;20522;-84
2023/11/27 04:19:21;;;;;;;6.68;1.60;;;9.70;99.90;;;;;;6226732;28;20420;-84
2023/11/27 04:22:24;;;;;;;5.82;1.70;;;9.70;99.90;;;;;;6210764;28;20140;-83
2023/11/27 04:25:26;;;;;;;4.97;1.60;;;9.70;99.90;;;;;;6249383;28;20405;-84
2023/11/27 04:28:27;;;;;;;6.15;2.15;;;9.70;99.90;;;;;;6252778;28;20615;-83
2023/11/27 04:31:29;;;;;;;8.35;1.98;;;9.70;99.90;;;;;;6243946;28;20053;-84
2023/11/27 04:34:31;;;;;;;7.70;1.92;;;9.70;99.90;;;;;;6225605;28;20072;-83
2023/11/27 04:37:32;;;;;;;8.15;2.10;;;9.70;99.90;;;;;;6249511;28;20052;-83
2023/11/27 04:40:34;;;;;;;7.38;1.95;;;9.70;99.90;;;;;;6232515;28;20061;-84
2023/11/27 04:43:36;;;;;;;9.68;2.33;;;9.70;99.90;;;;;;6245018;28;20080;-83
2023/11/27 04:46:38;;;;;;;9.73;2.38;;;9.70;99.90;;;;;;6253607;28;20049;-83
2023/11/27 04:49:39;;;;;;;6.75;2.47;;;9.70;99.90;;;;;;6229814;28;20156;-84
2023/11/27 04:52:41;;;;;;;7.28;2.40;;;9.70;99.90;;;;;;6273404;28;20057;-84
2023/11/27 04:55:43;;;;;;;7.60;2.60;;;9.60;99.90;;;;;;6231258;28;20397;-83
2023/11/27 04:58:44;;;;;;;6.28;2.28;;;9.70;99.90;;;;;;6238461;28;20053;-84
2023/11/27 05:01:46;;;;;;;6.10;2.20;;;9.60;99.90;;;;;;6249238;28;20642;-83
2023/11/27 05:04:48;;;;;;;8.40;2.60;;;9.60;99.90;;;;;;6257728;28;20049;-83
2023/11/27 05:07:49;;;;;;;8.55;2.28;;;9.60;99.90;;;;;;6245220;28;20057;-84
2023/11/27 05:10:51;;;;;;;6.22;2.30;;;9.60;99.90;;;;;;6272278;28;20424;-82
2023/11/27 05:13:53;;;;;;;6.50;2.50;;;9.70;99.90;;;;;;6264289;22;20049;-82
2023/11/27 05:16:54;;;;;;;8.82;2.55;;;9.60;99.90;;;;;;6270726;28;20504;-82
2023/11/27 05:19:56;;;;;;;6.30;2.60;;;9.60;99.90;;;;;;6229735;28;20045;-82
2023/11/27 05:22:58;;;;;;;6.60;2.28;;;9.60;99.90;;;;;;6228716;28;20060;-83
2023/11/27 05:25:59;;;;;;;6.00;2.30;;;9.60;99.90;;;;;;6208554;28;20053;-83
2023/11/27 05:29:01;;;;;;;5.35;2.20;;;9.60;99.90;;;;;;6234643;28;20064;-81
2023/11/27 05:32:07;;;;;;;7.13;2.40;;;9.60;99.90;;;;;;6246330;28;20064;-81
2023/11/27 05:35:09;;;;;;;8.52;2.28;;;9.60;99.90;;;;;;6226849;28;20413;-81
2023/11/27 05:38:11;;;;;;;9.40;2.47;;;9.60;99.90;;;;;;6211282;28;20046;-82
2023/11/27 05:41:13;;;;;;;6.70;2.50;;;9.60;99.90;;;;;;6252106;28;20053;-82
2023/11/27 05:44:15;;;;;;;9.43;2.45;;;9.50;99.90;;;;;;6239463;28;20076;-83
2023/11/27 05:47:19;;;;;;;6.65;2.50;;;9.50;99.90;;;;;;6237935;28;20062;-82
2023/11/27 05:50:22;;;;;;;5.63;2.20;;;9.50;99.90;;;;;;6247915;28;20060;-83
2023/11/27 05:53:24;;;;;;;6.50;2.30;;;9.50;99.90;;;;;;6233034;28;20053;-83
2023/11/27 05:56:25;;;;;;;7.55;2.33;;;9.50;99.90;;;;;;6270190;28;20056;-83
2023/11/27 05:59:27;;;;;;;5.50;2.60;;;9.50;99.90;;;;;;6225959;28;20061;-83
2023/11/27 06:02:29;;;;;;;6.53;2.30;;;9.50;99.90;;;;;;6218975;28;20112;-82
2023/11/27 06:05:31;;;;;;;7.53;2.47;;;9.50;99.90;;;;;;6251312;28;20063;-83
2023/11/27 06:08:32;;;;;;;5.25;2.60;;;9.50;99.90;;;;;;6229044;28;20064;-84
2023/11/27 06:11:34;;;;;;;6.40;2.33;;;9.50;99.90;;;;;;6226504;28;20057;-83
2023/11/27 06:14:36;;;;;;;5.88;2.47;;;9.50;99.90;;;;;;6246163;28;20599;-83
2023/11/27 06:17:37;;;;;;;5.70;2.50;;;9.50;99.90;;;;;;6240446;28;20054;-83
2023/11/27 06:20:39;;;;;;;7.38;2.78;;;9.50;99.90;;;;;;6251934;28;20064;-81
2023/11/27 06:23:41;;;;;;;6.70;2.60;;;9.50;99.90;;;;;;6266486;28;20048;-83
2023/11/27 06:26:43;;;;;;;7.45;2.75;;;9.50;99.90;;;;;;6227809;28;20049;-82
2023/11/27 06:29:44;;;;;;;5.93;2.50;;;9.50;99.90;;;;;;6261566;28;20511;-82
2023/11/27 06:32:46;;;;;;;6.38;2.45;;;9.50;99.90;;;;;;6258400;28;20519;-83
2023/11/27 06:35:51;;;;;;;8.27;2.95;;;9.40;99.90;;;;;;6222675;28;20053;-84
2023/11/27 06:38:53;;;;;;;6.15;2.90;;;9.50;99.90;;;;;;6224305;28;20515;-85
2023/11/27 06:41:54;;;;;;;7.32;2.60;;;9.40;99.90;;;;;;6269038;28;20063;-85
2023/11/27 06:44:57;;;;;;;6.60;2.35;;;9.40;99.90;;;;;;6227602;28;20265;-85
2023/11/27 06:47:59;;;;;;;5.43;2.45;;;9.40;99.90;;;;;;6251328;28;20516;-86
2023/11/27 06:51:01;;;;;;;4.90;2.17;;;9.40;99.90;;;;;;6228120;28;20058;-84
2023/11/27 06:54:02;;;;;;;6.70;2.30;;;9.40;99.90;;;;;;6269140;28;20521;-86
2023/11/27 06:57:08;;;;;;;4.45;2.10;;;9.40;99.90;;;;;;6228140;28;20409;-87
2023/11/27 07:00:10;;;;;;;6.22;2.45;;;9.40;99.90;;;;;;6218434;28;20520;-86
2023/11/27 07:03:12;;;;;;;6.03;2.58;;;9.30;99.90;;;;;;6219028;28;20538;-86
2023/11/27 07:06:14;;;;;;;5.50;2.40;;;9.30;99.90;;;;;;6268454;28;20056;-86
2023/11/27 07:09:16;;;;;;;6.28;2.17;;;9.30;99.90;;;;;;6228492;28;20045;-87
2023/11/27 07:12:18;;;;;;;4.45;2.10;;;9.30;99.90;;;;;;6262038;28;20061;-85
2023/11/27 07:15:20;;;;;;;4.40;1.83;;;9.40;99.90;;;;;;6228811;28;20483;-86
2023/11/27 07:18:22;;;;;;;5.10;2.30;;;9.30;99.90;;;;;;6227226;28;20053;-86
2023/11/27 07:21:30;;;;;;;4.15;2.03;;;9.40;99.90;;;;;;6219461;28;20053;-86
2023/11/27 07:24:31;;;;;;;4.80;2.20;;;9.30;99.90;;;;;;6267929;28;20492;-85
2023/11/27 07:27:33;;;;;;;5.50;2.50;;;9.40;99.90;;;;;;6231117;28;20060;-87
2023/11/27 07:30:36;;;;;;;5.65;2.38;;;9.40;99.90;;;;;;6250395;28;20515;-85
2023/11/27 07:33:38;;;;;;;5.05;2.70;;;9.40;99.90;;;;;;6270135;28;20057;-87
2023/11/27 07:36:40;;;;;;;5.22;2.53;;;9.30;99.90;;;;;;6227470;28;20064;-86
2023/11/27 07:39:44;;;;;;;8.35;3.20;;;9.30;99.90;;;;;;6251595;28;20091;-86
2023/11/27 07:42:46;;;;;;;6.32;2.80;;;9.30;99.90;;;;;;6249800;28;20049;-88
2023/11/27 07:45:48;;;;;;;8.40;2.92;;;9.30;99.90;;;;;;6252473;28;20076;-87
2023/11/27 07:48:49;;;;;;;8.80;3.40;;;9.30;99.90;;;;;;6246253;28;20049;-89
2023/11/27 07:51:57;;;;;;;7.25;3.15;;;9.30;99.90;;;;;;6229164;28;20653;-88
2023/11/27 07:54:59;;;;;;;7.80;3.25;;;9.30;99.90;;;;;;6220929;28;20062;-89
2023/11/27 07:58:02;;;;;;;7.03;3.40;;;9.30;99.90;;;;;;6259474;28;20132;-89
2023/11/27 08:01:04;;;;;;;5.88;3.00;;;9.30;99.90;;;;;;6229079;28;20551;-88
2023/11/27 08:04:06;;;;;;;6.20;2.78;;;9.30;99.90;;;;;;6248327;28;20164;-88
2023/11/27 08:07:09;;;;;;;7.43;3.28;;;9.30;99.90;;;;;;6255397;28;20154;-88
2023/11/27 08:10:11;;;;;;;8.13;3.42;;;9.30;99.90;;;;;;6228993;28;20060;-89
2023/11/27 08:13:13;;;;;;;7.15;3.08;;;9.30;99.90;;;;;;6218149;28;20068;-88
2023/11/27 08:16:19;;;;;;;8.63;3.30;;;9.30;99.90;;;;;;6196374;28;20453;-86
2023/11/27 08:19:21;;;;;;;7.85;3.22;;;9.30;99.90;;;;;;6193564;28;20082;-87
2023/11/27 08:22:25;;;;;;;7.18;3.10;;;9.40;99.90;;;;;;6227233;28;20490;-89
2023/11/27 08:25:28;;;;;;;8.43;3.55;;;9.40;99.90;;;;;;6224667;28;20058;-88
2023/11/27 08:28:30;;;;;;;6.40;3.30;;;9.40;99.90;;;;;;6200285;28;20050;-86
2023/11/27 08:31:32;;;;;;;7.32;3.28;;;9.40;99.90;;;;;;6221269;28;20101;-79
2023/11/27 08:34:34;;;;;;;7.88;3.53;;;9.40;99.90;;;;;;6199691;28;20501;-82
2023/11/27 08:37:36;;;;;;;8.20;3.28;;;9.40;99.90;;;;;;6222106;28;20046;-83
2023/11/27 08:40:38;;;;;;;9.20;3.45;;;9.50;99.90;;;;;;6200372;28;20410;-85
2023/11/27 08:43:43;;;;;;;8.55;3.38;;;9.60;99.90;;;;;;6210603;23;20057;-88
2023/11/27 08:46:46;;;;;;;8.85;3.28;;;9.60;99.90;;;;;;6232496;28;20057;-86
2023/11/27 08:49:48;;;;;;;8.90;3.67;;;9.60;99.90;;;;;;6206925;28;20104;-88
2023/11/27 08:52:50;;;;;;;10.05;3.70;;;9.60;99.90;;;;;;6248325;28;20053;-87
2023/11/27 08:55:52;;;;;;;8.00;3.70;;;9.60;99.90;;;;;;6205907;28;20228;-85
2023/11/27 08:58:56;;;;;;;7.65;3.20;;;9.60;99.90;;;;;;6228810;28;20622;-87
2023/11/27 09:01:57;;;;;;;8.88;3.83;;;9.50;99.90;;;;;;6203303;28;20068;-86
2023/11/27 09:04:59;;;;;;;5.85;3.47;;;9.60;99.90;;;;;;6243762;28;20096;-88
2023/11/27 09:08:05;;;;;;;7.20;3.67;;;9.50;99.90;;;;;;6237323;28;20115;-87
2023/11/27 09:11:11;;;;;;;6.97;3.67;;;9.50;99.90;;;;;;6199073;28;20055;-85
2023/11/27 09:14:13;;;;;;;7.55;3.70;;;9.50;99.90;;;;;;6224665;28;20385;-86
2023/11/27 09:17:14;;;;;;;9.57;4.28;;;9.60;99.90;;;;;;6223534;28;20487;-83
2023/11/27 09:20:16;;;;;;;7.35;3.55;;;9.50;99.90;;;;;;6209627;28;20142;-92
2023/11/27 09:23:18;;;;;;;6.93;3.72;;;9.60;99.90;;;;;;6220130;28;20184;-89
2023/11/27 09:26:20;;;;;;;7.55;3.97;;;9.50;99.90;;;;;;6250423;28;20127;-87
2023/11/27 09:29:22;;;;;;;6.78;3.58;;;9.50;99.90;;;;;;6210791;28;20061;-91
2023/11/27 09:32:23;;;;;;;9.10;3.85;;;9.50;99.90;;;;;;6214085;28;20050;-93
2023/11/27 09:35:28;;;;;;;7.47;4.00;;;9.50;99.90;;;;;;6228273;28;20148;-89
2023/11/27 09:38:30;;;;;;;8.65;3.83;;;9.50;99.90;;;;;;6235901;28;20050;-86
2023/11/27 09:41:35;;;;;;;7.82;3.88;;;9.50;99.90;;;;;;6207320;28;20060;-90
2023/11/27 09:44:37;;;;;;;6.53;3.85;;;9.50;99.90;;;;;;6239984;28;20080;-86
2023/11/27 09:47:39;;;;;;;9.00;3.60;;;9.60;99.90;;;;;;6205266;28;20054;-82
2023/11/27 09:50:41;;;;;;;7.18;3.75;;;9.70;99.90;;;;;;6239250;28;20054;-85
2023/11/27 09:53:43;;;;;;;9.55;3.85;;;9.80;99.90;;;;;;6210042;28;20060;-87
2023/11/27 09:56:44;;;;;;;10.90;3.35;;;9.90;99.90;;;;;;6246241;28;20579;-88
2023/11/27 09:59:46;;;;;;;10.38;3.90;;;10.10;99.90;;;;;;6202110;28;20049;-85
2023/11/27 10:02:47;;;;;;;6.45;3.03;;;10.20;99.90;;;;;;6230594;28;20053;-96
2023/11/27 10:05:49;;;;;;;6.85;3.15;;;10.30;99.90;;;;;;6207901;28;20155;-89
2023/11/27 10:08:51;;;;;;;6.35;3.13;;;10.40;99.90;;;;;;6204799;28;20057;-89
2023/11/27 10:11:53;;;;;;;5.30;2.85;;;10.30;99.90;;;;;;6212690;28;20093;-91
2023/11/27 10:14:55;;;;;;;8.25;2.90;;;10.30;99.90;;;;;;6245176;28;20500;-89
2023/11/27 10:17:57;;;;;;;12.50;4.22;;;10.20;99.90;;;;;;6206637;28;20144;-89
2023/11/27 10:20:59;;;;;;;6.72;2.95;;;10.20;99.90;;;;;;6208040;28;20062;-90
2023/11/27 10:24:01;;;;;;;7.40;3.70;;;10.10;99.90;;;;;;6231268;28;20128;-85
2023/11/27 10:27:03;;;;;;;6.65;2.80;;;10.10;99.90;;;;;;6209092;28;20072;-86
2023/11/27 10:30:05;;;;;;;7.03;3.22;;;10.10;99.90;;;;;;6205017;28;20057;-81
2023/11/27 10:33:07;;;;;;;7.25;2.90;;;10.10;99.90;;;;;;6182623;28;20050;-87
2023/11/27 10:36:09;;;;;;;5.93;2.67;;;10.10;99.90;;;;;;6248493;28;20089;-85
2023/11/27 10:39:15;;;;;;;8.27;2.92;;;10.10;99.90;;;;;;6208671;28;20068;-79
2023/11/27 10:42:18;;;;;;;7.15;3.30;;;10.20;99.90;;;;;;6242768;28;20397;-84
2023/11/27 10:45:19;;;;;;;6.47;2.97;;;10.20;99.90;;;;;;6232450;28;20088;-82
2023/11/27 10:48:22;;;;;;;8.38;4.00;;;10.20;99.90;;;;;;6225301;28;20056;-83
2023/11/27 10:51:38;;;;;;;8.23;4.43;;;10.30;99.90;;;;;;6206905;28;20064;-84
2023/11/27 10:54:40;;;;;;;7.78;4.03;;;10.50;99.90;;;;;;6225310;28;20108;-84
2023/11/27 10:57:43;;;;;;;12.98;7.22;;;10.60;99.90;;;;;;6231774;28;20049;-85
2023/11/27 11:00:56;;;;;;;6.72;3.70;;;10.60;99.90;;;;;;6255327;28;20053;-84
2023/11/27 11:03:59;;;;;;;10.00;4.35;;;10.70;99.90;;;;;;6203441;28;20058;-83
2023/11/27 11:07:02;;;;;;;10.27;4.28;;;10.70;99.90;;;;;;6199797;28;20082;-83
2023/11/27 11:10:10;;;;;;;13.32;6.90;;;10.70;99.90;;;;;;6222181;28;20117;-83
2023/11/27 11:13:13;;;;;;;10.60;5.40;;;10.70;99.90;;;;;;6242436;28;20052;-84
2023/11/27 11:16:15;;;;;;;6.78;3.33;;;10.60;99.90;;;;;;6241606;28;20164;-84
2023/11/27 11:19:17;;;;;;;7.40;3.28;;;10.60;99.90;;;;;;6260780;28;20049;-84
2023/11/27 11:22:18;;;;;;;6.65;3.50;;;10.40;99.90;;;;;;6211863;28;20064;-83
2023/11/27 11:25:20;;;;;;;7.90;4.22;;;10.40;99.90;;;;;;6216449;28;20494;-83
2023/11/27 11:28:25;;;;;;;12.93;5.50;;;10.50;99.90;;;;;;6222448;28;20204;-83
2023/11/27 11:31:35;;;;;;;9.40;4.80;;;10.50;99.90;;;;;;6226532;28;20053;-84
2023/11/27 11:34:37;;;;;;;7.25;3.42;;;10.50;99.90;;;;;;6202313;28;20088;-83
2023/11/27 11:37:40;;;;;;;19.13;9.05;;;10.60;99.90;;;;;;6242793;28;20053;-83
2023/11/27 11:40:42;;;;;;;8.80;4.97;;;10.70;99.90;;;;;;6219873;28;20425;-83
2023/11/27 11:43:47;;;;;;;15.45;7.35;;;10.70;99.90;;;;;;6211209;28;20057;-81
2023/11/27 11:46:49;;;;;;;11.07;6.13;;;10.60;99.90;;;;;;6222792;28;20132;-83
2023/11/27 11:49:50;;;;;;;17.85;9.65;;;10.50;99.90;;;;;;6245989;28;20060;-83
2023/11/27 11:52:53;;;;;;;18.02;10.55;;;10.40;99.90;;;;;;6207929;28;20093;-85
2023/11/27 11:55:55;;;;;;;20.80;12.02;;;10.40;99.90;;;;;;6251281;28;20111;-83
2023/11/27 11:58:56;;;;;;;38.65;21.55;;;10.40;99.90;;;;;;6242430;28;20050;-83
2023/11/27 12:01:58;;;;;;;57.65;33.08;;;10.40;99.90;;;;;;6225965;28;20069;-84
2023/11/27 12:05:00;;;;;;;54.10;26.60;;;10.50;99.90;;;;;;6251496;28;20052;-83
2023/11/27 12:08:02;;;;;;;27.02;15.90;;;10.50;99.90;;;;;;6229609;28;20160;-83
2023/11/27 12:11:04;;;;;;;14.48;8.65;;;10.50;99.90;;;;;;6251104;28;20509;-83
2023/11/27 12:14:07;;;;;;;9.20;5.40;;;10.60;99.90;;;;;;6233872;28;20524;-83
2023/11/27 12:17:09;;;;;;;5.88;3.88;;;10.60;99.90;;;;;;6204143;28;20085;-83
2023/11/27 12:20:11;;;;;;;7.15;3.22;;;10.50;99.90;;;;;;6227112;28;20057;-83
2023/11/27 12:23:13;;;;;;;5.72;2.70;;;10.50;99.90;;;;;;6202485;28;20487;-81
2023/11/27 12:26:23;;;;;;;8.52;5.25;;;10.40;99.90;;;;;;6249804;28;20412;-82
2023/11/27 12:29:24;;;;;;;6.10;3.53;;;10.40;99.90;;;;;;6201168;28;20516;-82
2023/11/27 12:32:26;;;;;;;7.65;4.40;;;10.20;99.90;;;;;;6213701;28;20050;-82
2023/11/27 12:35:31;;;;;;;13.25;7.07;;;10.20;99.90;;;;;;6226091;28;20136;-83
2023/11/27 12:38:37;;;;;;;9.52;5.30;;;10.30;99.90;;;;;;6185774;28;20060;-82
2023/11/27 12:41:38;;;;;;;9.93;6.13;;;10.40;99.90;;;;;;6250997;28;20232;-83
2023/11/27 12:44:46;;;;;;;7.18;3.75;;;10.60;99.90;;;;;;6205541;28;20140;-83
2023/11/27 12:47:51;;;;;;;6.78;3.50;;;10.50;99.90;;;;;;6203024;28;20065;-83
2023/11/27 12:50:55;;;;;;;6.38;2.92;;;10.40;99.90;;;;;;6250930;28;20060;-81
2023/11/27 12:53:58;;;;;;;10.50;3.40;;;10.30;99.90;;;;;;6228521;28;20421;-82
2023/11/27 12:57:00;;;;;;;12.48;3.05;;;10.20;99.90;;;;;;6251216;28;20056;-79
2023/11/27 13:00:02;;;;;;;4.15;1.30;;;9.90;99.90;;;;;;6227210;28;20049;-80
2023/11/27 13:03:04;;;;;;;5.35;1.77;;;9.20;99.90;;;;;;6250371;28;20056;-79
2023/11/27 13:06:05;;;;;;;4.10;1.40;;;8.80;99.90;;;;;;6197646;28;20068;-80
2023/11/27 13:09:07;;;;;;;5.47;1.58;;;8.60;99.90;;;;;;6246656;28;20050;-80
2023/11/27 13:12:15;;;;;;;4.20;1.60;;;8.40;99.90;;;;;;6223310;28;20053;-79
2023/11/27 13:15:25;;;;;;;5.90;1.90;;;8.30;99.90;;;;;;6244705;28;20045;-79
2023/11/27 13:18:28;;;;;;;3.58;1.60;;;8.20;99.90;;;;;;6198493;28;20057;-79
2023/11/27 13:21:32;;;;;;;3.42;1.70;;;8.10;99.90;;;;;;6246637;28;20528;-79
2023/11/27 13:24:34;;;;;;;4.85;3.00;;;8.00;99.90;;;;;;6222553;28;20058;-80
2023/11/27 13:27:44;;;;;;;4.97;1.58;;;8.00;99.90;;;;;;6238208;28;20136;-79
2023/11/27 13:30:51;;;;;;;3.30;1.50;;;8.00;99.90;;;;;;6204792;28;20481;-80
2023/11/27 13:33:53;;;;;;;3.20;1.60;;;7.90;99.90;;;;;;6197918;28;20451;-79
2023/11/27 13:36:55;;;;;;;4.30;1.83;;;7.80;99.90;;;;;;6245379;28;20115;-79
2023/11/27 13:40:01;;;;;;;4.55;1.80;;;7.70;99.90;;;;;;6222850;28;20054;-79
2023/11/27 13:43:08;;;;;;;3.90;1.80;;;7.70;99.90;;;;;;6226502;28;20057;-78
2023/11/27 13:46:14;;;;;;;4.35;2.00;;;7.60;99.90;;;;;;6246436;28;20069;-80
2023/11/27 13:49:19;;;;;;;4.55;2.20;;;7.40;99.90;;;;;;6198181;28;20058;-80
2023/11/27 13:52:22;;;;;;;3.38;2.00;;;7.30;99.90;;;;;;6246232;28;20390;-80
2023/11/27 13:55:25;;;;;;;4.93;2.38;;;7.20;99.90;;;;;;6210155;28;20054;-79
2023/11/27 13:58:27;;;;;;;5.40;2.28;;;7.10;99.90;;;;;;6227743;28;20146;-77
2023/11/27 14:01:28;;;;;;;4.80;2.40;;;7.10;99.90;;;;;;6221140;28;20053;-79
2023/11/27 14:04:30;;;;;;;5.22;2.40;;;7.10;99.90;;;;;;6243701;28;20049;-79
2023/11/27 14:07:39;;;;;;;6.43;2.40;;;7.20;99.90;;;;;;6204174;28;20145;-79
2023/11/27 14:10:54;;;;;;;5.38;2.22;;;7.10;99.90;;;;;;6221149;28;20053;-79
2023/11/27 14:14:04;;;;;;;4.00;2.30;;;7.10;99.90;;;;;;6221421;28;20064;-79
2023/11/27 14:17:18;;;;;;;4.03;2.35;;;7.10;99.90;;;;;;6196744;28;20054;-77
2023/11/27 14:29:53;;;;;;;4.70;2.30;;;7.00;99.90;;;;;;6240235;28;20060;-80
2023/11/27 14:32:54;;;;;;;4.25;2.00;;;7.00;99.90;;;;;;6196488;28;20486;-81
2023/11/27 14:35:56;;;;;;;4.32;1.90;;;6.90;99.90;;;;;;6196826;28;20136;-83
2023/11/27 14:38:58;;;;;;;2.97;1.60;;;6.80;99.90;;;;;;6179453;28;20057;-81
2023/11/27 14:42:00;;;;;;;3.25;1.83;;;6.70;99.90;;;;;;6196877;28;20524;-83
2023/11/27 14:45:05;;;;;;;5.00;2.10;;;6.60;99.90;;;;;;6217332;28;20069;-83
2023/11/27 14:48:07;;;;;;;4.80;2.08;;;6.60;99.90;;;;;;6221108;28;20076;-81
2023/11/27 14:51:12;;;;;;;4.28;1.95;;;6.60;99.90;;;;;;6203564;28;20056;-82
2023/11/27 14:54:14;;;;;;;4.15;2.10;;;6.60;99.90;;;;;;6244945;28;20057;-81
2023/11/27 14:57:16;;;;;;;5.07;2.22;;;6.60;99.90;;;;;;6229736;28;20057;-81
2023/11/27 15:00:26;;;;;;;5.35;2.20;;;6.50;99.90;;;;;;6218140;28;20061;-82
2023/11/27 15:03:29;;;;;;;4.50;2.22;;;6.50;99.90;;;;;;6196455;28;20050;-80
2023/11/27 15:06:34;;;;;;;4.43;1.90;;;6.40;99.90;;;;;;6243037;28;20429;-82
2023/11/27 15:09:36;;;;;;;5.45;2.13;;;6.40;99.90;;;;;;6196398;28;20485;-82
2023/11/27 15:12:43;;;;;;;4.72;2.33;;;6.40;99.90;;;;;;6242513;28;20064;-82
2023/11/27 15:15:45;;;;;;;4.93;2.40;;;6.40;99.90;;;;;;6246230;28;20068;-80
2023/11/27 15:18:47;;;;;;;4.40;2.10;;;6.40;99.90;;;;;;6197234;28;20473;-79
2023/11/27 15:21:49;;;;;;;4.93;2.35;;;6.40;99.90;;;;;;6243423;28;20049;-80
2023/11/27 15:24:55;;;;;;;4.10;2.20;;;6.40;99.90;;;;;;6221067;28;20472;-80
2023/11/27 15:27:57;;;;;;;4.28;2.28;;;6.40;99.90;;;;;;6212607;28;20053;-81
2023/11/27 15:30:59;;;;;;;5.07;2.40;;;6.30;99.90;;;;;;6244435;28;20386;-81
2023/11/27 15:34:05;;;;;;;3.97;2.15;;;6.30;99.90;;;;;;6243586;28;20049;-81
2023/11/27 15:37:07;;;;;;;5.30;2.13;;;6.20;99.90;;;;;;6202528;28;20137;-83
2023/11/27 15:40:09;;;;;;;3.83;1.63;;;6.10;99.90;;;;;;6226282;28;20054;-81
2023/11/27 15:43:11;;;;;;;4.10;1.80;;;6.10;99.90;;;;;;6231700;28;20515;-81
2023/11/27 15:46:16;;;;;;;4.35;2.00;;;6.10;99.90;;;;;;6243130;28;20057;-80
2023/11/27 15:49:18;;;;;;;3.83;2.00;;;6.00;99.90;;;;;;6219338;28;20191;-81
2023/11/27 15:52:20;;;;;;;5.05;2.08;;;6.10;99.90;;;;;;6243475;28;20045;-82
2023/11/27 15:55:23;;;;;;;5.50;2.10;;;6.10;99.90;;;;;;6195928;28;20506;-82
2023/11/27 15:58:25;;;;;;;4.47;2.20;;;6.00;99.90;;;;;;6225040;28;20050;-80
2023/11/27 16:01:26;;;;;;;5.20;2.30;;;6.00;99.90;;;;;;6230526;28;20448;-80
2023/11/27 16:04:29;;;;;;;4.75;2.50;;;5.90;99.90;;;;;;6243740;28;20057;-80
2023/11/27 16:07:31;;;;;;;4.63;2.17;;;5.90;99.90;;;;;;6219738;28;20111;-80